Карточка аэропорта UUYY

Внимание!
Информация на этой странице в стадии наполнения.
Если вы не увидели какой-то информации, или заметили неточность - пожалуйста сообщите нам!
Спасибо!
Команда RU-STAFF
Название аэропортаСыктывкар
Название аэропорта (англ.)Syktyvkar
Превышение339 ft. (103.3 m.)
Координаты61°38.502', 50°50.298'
Высота перехода3000 feet
Эшелон переходаQNH>=1013hPa:FL040; QNH<1013hPa:FL050; QNH<977hPa:FL060
Коды ответчика3130-3134, 5752-5757, 5770-5777, 6701-6717
Зона ОрВДСанкт-Петербург РПИ (ULLL)
Данные METARUUYY 041230Z 32004MPS 9999 -SHRASN SCT012 BKN023CB 00/M02 Q1010 R18/29//51 NOSIG RMK QFE749/0999
Проноз погоды (TAF)UUYY 041100Z 0412/0512 29005G12MPS 6000 -SHSN BKN011 BKN017CB TEMPO 0412/0418 31007G16MPS 0500 +SHSN FZDZ BLSN BKN004 BKN016CB FM041800 35005G14MPS 6000 -SHSN FEW011 BKN017CB TEMPO 0418/0422 -FZDZ BKN011 BKN016CB BECMG 0508/0510 31003MPS
NOTAMshow/hide NOTAM
AWOS   TABLE

Информация о ВПП

ВПП Длина ВПП (м.) Покрытие Курс ВПП Частота ILS
012500Асфальтобетон6108.3
192500Асфальтобетон186111.7

Диспетчерские позиции

Позывной Наименование органа УВД Частота
UUYY_R_APPСивкар-Круг124.600
UUYY_TWRСивкар-Старт124.600



Спутниковое изображение